createdAt,value
2017-06-30T00:00:12.155Z,15.74
2017-06-30T00:00:25.599Z,15.68
2017-06-30T00:00:39.063Z,15.71
2017-06-30T00:00:52.463Z,15.71
2017-06-30T00:01:05.935Z,15.7
2017-06-30T00:01:19.407Z,15.73
2017-06-30T00:01:32.268Z,15.71
2017-06-30T00:01:45.723Z,15.73
2017-06-30T00:01:59.208Z,15.7
2017-06-30T00:02:12.633Z,15.75
2017-06-30T00:02:25.528Z,15.73
2017-06-30T00:02:39.067Z,15.71
2017-06-30T00:02:52.526Z,15.74
2017-06-30T00:03:06.000Z,15.71
2017-06-30T00:03:19.474Z,15.75
2017-06-30T00:03:32.938Z,15.71
2017-06-30T00:03:46.359Z,15.63
2017-06-30T00:03:59.350Z,15.68
2017-06-30T00:04:12.817Z,15.71
2017-06-30T00:04:26.252Z,15.73
2017-06-30T00:04:39.168Z,15.68
2017-06-30T00:04:52.672Z,15.68
2017-06-30T00:05:06.086Z,15.71
2017-06-30T00:05:18.992Z,15.71
2017-06-30T00:05:31.946Z,15.74
2017-06-30T00:05:45.376Z,15.73
2017-06-30T00:05:58.828Z,15.74
2017-06-30T00:06:11.778Z,15.7
2017-06-30T00:06:24.700Z,15.7
2017-06-30T00:06:38.118Z,15.74
2017-06-30T00:06:51.565Z,15.75
2017-06-30T00:07:05.026Z,15.75
2017-06-30T00:07:18.495Z,15.74
2017-06-30T00:07:32.246Z,15.75
2017-06-30T00:07:45.683Z,15.74
2017-06-30T00:07:59.104Z,15.63
2017-06-30T00:08:12.015Z,15.63
2017-06-30T00:08:25.550Z,15.75
2017-06-30T00:08:38.539Z,15.7
2017-06-30T00:08:52.089Z,15.65
2017-06-30T00:09:05.579Z,15.7
2017-06-30T00:09:18.991Z,15.62
2017-06-30T00:09:32.429Z,15.59
2017-06-30T00:09:45.848Z,15.65
2017-06-30T00:09:59.255Z,15.55
2017-06-30T00:10:12.718Z,15.6
2017-06-30T00:10:26.166Z,15.59
2017-06-30T00:10:38.557Z,15.62
2017-06-30T00:10:52.073Z,15.56
2017-06-30T00:11:05.574Z,15.56
2017-06-30T00:11:19.058Z,15.6
2017-06-30T00:11:32.501Z,15.6
2017-06-30T00:11:45.995Z,15.47
2017-06-30T00:11:59.435Z,15.52
2017-06-30T00:12:12.846Z,15.44
2017-06-30T00:12:26.328Z,15.44
2017-06-30T00:12:39.810Z,15.49
2017-06-30T00:12:53.262Z,15.47
2017-06-30T00:13:06.195Z,15.44
2017-06-30T00:13:19.677Z,15.43
2017-06-30T00:13:32.616Z,15.41
2017-06-30T00:13:46.070Z,15.43
2017-06-30T00:13:59.517Z,15.4
2017-06-30T00:14:12.977Z,15.43
2017-06-30T00:14:25.877Z,15.41
2017-06-30T00:14:39.345Z,15.4
2017-06-30T00:14:52.782Z,15.44
2017-06-30T00:15:06.239Z,15.44
2017-06-30T00:15:19.711Z,15.4
2017-06-30T00:15:33.222Z,15.43
2017-06-30T00:15:46.147Z,15.35
2017-06-30T00:15:59.570Z,15.4
2017-06-30T00:16:13.000Z,15.3
2017-06-30T00:16:26.457Z,15.45
2017-06-30T00:16:39.821Z,15.41
2017-06-30T00:16:53.250Z,15.26
2017-06-30T00:17:06.747Z,15.33
2017-06-30T00:17:20.245Z,15.4
2017-06-30T00:17:33.163Z,15.33
2017-06-30T00:17:46.093Z,15.38
2017-06-30T00:17:59.501Z,15.38
2017-06-30T00:18:12.485Z,15.4
2017-06-30T00:18:25.997Z,15.41
2017-06-30T00:18:38.972Z,15.37
2017-06-30T00:18:52.492Z,15.35
2017-06-30T00:19:05.951Z,15.33
2017-06-30T00:19:19.395Z,15.33
2017-06-30T00:19:32.888Z,15.26
2017-06-30T00:19:46.364Z,15.34
2017-06-30T00:19:59.808Z,15.27
2017-06-30T00:20:13.323Z,15.31
2017-06-30T00:20:26.766Z,15.33
2017-06-30T00:20:39.696Z,15.25
2017-06-30T00:20:53.179Z,15.26
2017-06-30T00:21:06.589Z,15.31
2017-06-30T00:21:20.060Z,15.19
2017-06-30T00:21:33.462Z,15.33
2017-06-30T00:21:46.864Z,15.18
2017-06-30T00:22:00.363Z,15.15
2017-06-30T00:22:13.292Z,15.16
2017-06-30T00:22:26.729Z,15.22
2017-06-30T00:22:40.509Z,15.12
2017-06-30T00:22:53.991Z,15.16
2017-06-30T00:23:06.946Z,15.13
2017-06-30T00:23:20.414Z,15.18
2017-06-30T00:23:33.326Z,15.07
2017-06-30T00:23:46.776Z,15.08
2017-06-30T00:23:59.739Z,15.04
2017-06-30T00:24:13.194Z,15.13
2017-06-30T00:24:26.666Z,15.07
2017-06-30T00:24:39.554Z,15.04
2017-06-30T00:24:52.981Z,15.12
2017-06-30T00:25:05.895Z,15.13
2017-06-30T00:25:19.432Z,15.05
2017-06-30T00:25:32.848Z,15.08
2017-06-30T00:25:46.259Z,15.1
2017-06-30T00:25:59.701Z,15.1
2017-06-30T00:26:13.152Z,15.12
2017-06-30T00:26:26.568Z,15.05
2017-06-30T00:26:40.047Z,14.97
2017-06-30T00:26:52.971Z,15.04
2017-06-30T00:27:05.915Z,15.01
2017-06-30T00:27:18.286Z,15.01
2017-06-30T00:27:31.741Z,15.02
2017-06-30T00:27:45.207Z,15.02
2017-06-30T00:27:58.108Z,15
2017-06-30T00:28:11.064Z,15.04
2017-06-30T00:28:24.492Z,15.07
2017-06-30T00:28:37.975Z,15.05
2017-06-30T00:28:51.433Z,15
2017-06-30T00:29:04.845Z,15.01
2017-06-30T00:29:18.317Z,15.07
2017-06-30T00:29:31.772Z,14.98
2017-06-30T00:29:45.217Z,14.97
2017-06-30T00:29:58.613Z,15.04
2017-06-30T00:30:11.558Z,14.97
2017-06-30T00:30:24.989Z,14.95
2017-06-30T00:30:38.456Z,14.9
2017-06-30T00:30:51.849Z,15.01
2017-06-30T00:31:05.317Z,15
2017-06-30T00:31:18.742Z,15.05
2017-06-30T00:31:32.139Z,15.01
2017-06-30T00:31:45.543Z,14.98
2017-06-30T00:31:59.003Z,14.98
2017-06-30T00:32:11.896Z,15.01
2017-06-30T00:32:25.359Z,15.01
2017-06-30T00:32:38.857Z,15.05
2017-06-30T00:32:52.317Z,15
2017-06-30T00:33:05.776Z,15.07
2017-06-30T00:33:19.189Z,14.97
2017-06-30T00:33:32.122Z,15.01
2017-06-30T00:33:45.535Z,15.08
2017-06-30T00:33:59.036Z,15.05
2017-06-30T00:34:12.507Z,15.05
2017-06-30T00:34:25.924Z,15.04
2017-06-30T00:34:39.343Z,15.02
2017-06-30T00:34:52.793Z,15.08
2017-06-30T00:35:06.201Z,15.12
2017-06-30T00:35:19.072Z,15.15
2017-06-30T00:35:31.974Z,15.1
2017-06-30T00:35:45.477Z,15.12
2017-06-30T00:35:58.411Z,15.15
2017-06-30T00:36:11.859Z,15.23
2017-06-30T00:36:25.278Z,15.25
2017-06-30T00:36:38.761Z,15.23
2017-06-30T00:36:51.667Z,15.25
2017-06-30T00:37:05.102Z,15.31
2017-06-30T00:37:18.646Z,15.27
2017-06-30T00:37:32.121Z,15.31
2017-06-30T00:37:45.797Z,15.33
2017-06-30T00:37:58.775Z,15.31
2017-06-30T00:38:11.725Z,15.26
2017-06-30T00:38:25.169Z,15.4
2017-06-30T00:38:38.589Z,15.38
2017-06-30T00:38:51.488Z,15.47
2017-06-30T00:39:04.970Z,15.44
2017-06-30T00:39:18.451Z,15.44
2017-06-30T00:39:31.863Z,15.45
2017-06-30T00:39:45.371Z,15.45
2017-06-30T00:39:59.069Z,15.45
2017-06-30T00:40:12.606Z,15.51
2017-06-30T00:40:26.034Z,15.4
2017-06-30T00:40:39.457Z,15.47
2017-06-30T00:40:52.339Z,15.43
2017-06-30T00:41:05.795Z,15.43
2017-06-30T00:41:19.315Z,15.4
2017-06-30T00:41:32.214Z,15.43
2017-06-30T00:41:45.645Z,15.43
2017-06-30T00:41:59.101Z,15.43
2017-06-30T00:42:12.577Z,15.41
2017-06-30T00:42:26.074Z,15.43
2017-06-30T00:42:38.934Z,15.37
2017-06-30T00:42:52.358Z,15.4
2017-06-30T00:43:05.733Z,15.37
2017-06-30T00:43:19.189Z,15.38
2017-06-30T00:43:32.629Z,15.31
2017-06-30T00:43:46.086Z,15.31
2017-06-30T00:43:59.533Z,15.33
2017-06-30T00:44:13.022Z,15.33
2017-06-30T00:44:26.486Z,15.3
2017-06-30T00:44:39.990Z,15.33
2017-06-30T00:44:53.434Z,15.3
2017-06-30T00:45:06.905Z,15.3
2017-06-30T00:45:20.355Z,15.31
2017-06-30T00:45:33.775Z,15.27
2017-06-30T00:45:47.207Z,15.3
2017-06-30T00:46:00.683Z,15.31
2017-06-30T00:46:14.144Z,15.22
2017-06-30T00:46:27.597Z,15.3
2017-06-30T00:46:41.058Z,15.31
2017-06-30T00:46:54.563Z,15.19
2017-06-30T00:47:07.989Z,15.26
2017-06-30T00:47:21.457Z,15.18
2017-06-30T00:47:34.390Z,15.16
2017-06-30T00:47:47.864Z,15.13
2017-06-30T00:48:01.260Z,15.16
2017-06-30T00:48:14.240Z,15.16
2017-06-30T00:48:27.626Z,15.16
2017-06-30T00:48:41.059Z,15.18
2017-06-30T00:48:54.503Z,15.13
2017-06-30T00:49:07.978Z,15.1
2017-06-30T00:49:21.475Z,15.13
2017-06-30T00:49:34.947Z,15.13
2017-06-30T00:49:48.370Z,15.04
2017-06-30T00:50:01.848Z,15.1
2017-06-30T00:50:15.296Z,15.04
2017-06-30T00:50:28.699Z,15.12
2017-06-30T00:50:42.158Z,15.04
2017-06-30T00:50:55.641Z,15.1
2017-06-30T00:51:08.554Z,15.07
2017-06-30T00:51:21.995Z,15.02
2017-06-30T00:51:35.462Z,15.04
2017-06-30T00:51:49.008Z,15.01
2017-06-30T00:52:02.476Z,15.05
2017-06-30T00:52:15.921Z,15.07
2017-06-30T00:52:29.406Z,15.08
2017-06-30T00:52:42.879Z,15.13
2017-06-30T00:52:56.594Z,15.13
2017-06-30T00:53:10.110Z,15.13
2017-06-30T00:53:23.608Z,15.18
2017-06-30T00:53:37.030Z,15.18
2017-06-30T00:53:50.454Z,15.18
2017-06-30T00:54:03.894Z,15.12
2017-06-30T00:54:17.438Z,15.18
2017-06-30T00:54:30.855Z,15.18
2017-06-30T00:54:44.315Z,15.19
2017-06-30T00:54:57.739Z,15.22
2017-06-30T00:55:11.167Z,15.18
2017-06-30T00:55:24.608Z,15.16
2017-06-30T00:55:38.066Z,15.23
2017-06-30T00:55:51.557Z,15.15
2017-06-30T00:56:05.005Z,15.23
2017-06-30T00:56:18.459Z,15.31
2017-06-30T00:56:31.864Z,15.22
2017-06-30T00:56:45.330Z,15.27
2017-06-30T00:56:58.791Z,15.27
2017-06-30T00:57:12.215Z,15.22
2017-06-30T00:57:25.606Z,15.31
2017-06-30T00:57:39.022Z,15.27
2017-06-30T00:57:52.414Z,15.25
2017-06-30T00:58:05.292Z,15.3
2017-06-30T00:58:18.735Z,15.27
2017-06-30T00:58:32.214Z,15.25
2017-06-30T00:58:45.685Z,15.23
2017-06-30T00:58:59.134Z,15.26
2017-06-30T00:59:12.578Z,15.25
2017-06-30T00:59:26.016Z,15.23
2017-06-30T00:59:39.425Z,15.26
2017-06-30T00:59:52.921Z,15.22
2017-06-30T01:00:06.384Z,15.27
2017-06-30T01:00:19.779Z,15.16
2017-06-30T01:00:33.263Z,15.18
2017-06-30T01:00:46.756Z,15.16
2017-06-30T01:00:59.614Z,15.2
2017-06-30T01:01:13.053Z,15.12
2017-06-30T01:01:25.449Z,15.2
2017-06-30T01:01:38.890Z,15.16
2017-06-30T01:01:52.340Z,15.13
2017-06-30T01:02:05.280Z,15.05
2017-06-30T01:02:18.779Z,15.1
2017-06-30T01:02:32.190Z,15.08
2017-06-30T01:02:45.697Z,15.07
2017-06-30T01:02:59.150Z,15.04
2017-06-30T01:03:12.602Z,15.1
2017-06-30T01:03:26.051Z,15.07
2017-06-30T01:03:39.446Z,15.07
2017-06-30T01:03:52.883Z,15.01
2017-06-30T01:04:06.285Z,14.98
2017-06-30T01:04:19.700Z,15.01
2017-06-30T01:04:33.156Z,14.95
2017-06-30T01:04:46.598Z,14.95
2017-06-30T01:04:59.503Z,14.95
2017-06-30T01:05:12.438Z,14.97
2017-06-30T01:05:25.956Z,15.04
2017-06-30T01:05:39.458Z,15.02
2017-06-30T01:05:52.847Z,15.02
2017-06-30T01:06:06.291Z,14.94
2017-06-30T01:06:19.690Z,14.98
2017-06-30T01:06:33.146Z,14.93
2017-06-30T01:06:46.630Z,14.93
2017-06-30T01:07:00.040Z,14.94
2017-06-30T01:07:13.485Z,14.97
2017-06-30T01:07:26.359Z,14.93
2017-06-30T01:07:39.828Z,14.94
2017-06-30T01:07:53.288Z,14.93
2017-06-30T01:08:06.978Z,14.95
2017-06-30T01:08:20.434Z,14.97
2017-06-30T01:08:33.882Z,14.97
2017-06-30T01:08:47.312Z,14.87
2017-06-30T01:09:00.786Z,15.01
2017-06-30T01:09:13.660Z,14.98
2017-06-30T01:09:27.141Z,14.98
2017-06-30T01:09:40.598Z,14.89
2017-06-30T01:09:54.090Z,14.98
2017-06-30T01:10:07.533Z,15.05
2017-06-30T01:10:20.982Z,15.02
2017-06-30T01:10:33.908Z,15.01
2017-06-30T01:10:46.810Z,14.89
2017-06-30T01:11:00.209Z,15
2017-06-30T01:11:13.599Z,15.05
2017-06-30T01:11:27.020Z,14.89
2017-06-30T01:11:39.454Z,14.98
2017-06-30T01:11:52.888Z,14.98
2017-06-30T01:12:06.365Z,14.98
2017-06-30T01:12:19.799Z,15.01
2017-06-30T01:12:32.716Z,15.01
2017-06-30T01:12:46.143Z,14.98
2017-06-30T01:12:59.583Z,15.01
2017-06-30T01:13:12.494Z,15.02
2017-06-30T01:13:25.945Z,14.98
2017-06-30T01:13:39.405Z,15.02
2017-06-30T01:13:52.876Z,14.98
2017-06-30T01:14:06.331Z,15.01
2017-06-30T01:14:19.804Z,15.04
2017-06-30T01:14:33.306Z,15
2017-06-30T01:14:46.785Z,14.97
2017-06-30T01:15:00.281Z,15.01
2017-06-30T01:15:13.732Z,15
2017-06-30T01:15:26.643Z,15.07
2017-06-30T01:15:40.146Z,14.98
2017-06-30T01:15:53.589Z,15
2017-06-30T01:16:07.037Z,15.05
2017-06-30T01:16:20.476Z,14.98
2017-06-30T01:16:33.884Z,15.01
2017-06-30T01:16:47.331Z,14.9
2017-06-30T01:17:00.842Z,14.94
2017-06-30T01:17:14.327Z,15
2017-06-30T01:17:26.743Z,14.95
2017-06-30T01:17:40.183Z,14.98
2017-06-30T01:17:53.846Z,15
2017-06-30T01:18:07.321Z,14.95
2017-06-30T01:18:20.829Z,14.94
2017-06-30T01:18:33.706Z,14.93
2017-06-30T01:18:46.803Z,14.95
2017-06-30T01:18:59.774Z,14.93
2017-06-30T01:19:13.224Z,14.94
2017-06-30T01:19:26.383Z,14.95
2017-06-30T01:19:39.831Z,14.94
2017-06-30T01:19:53.285Z,14.93
2017-06-30T01:20:06.191Z,14.94
2017-06-30T01:20:19.620Z,14.94
2017-06-30T01:20:33.115Z,14.94
2017-06-30T01:20:45.530Z,14.85
2017-06-30T01:20:58.941Z,14.82
2017-06-30T01:21:12.383Z,14.87
2017-06-30T01:21:25.816Z,14.86
2017-06-30T01:21:38.730Z,14.87
2017-06-30T01:21:52.147Z,14.95
2017-06-30T01:22:05.592Z,14.93
2017-06-30T01:22:19.006Z,14.97
2017-06-30T01:22:32.411Z,14.83
2017-06-30T01:22:45.888Z,14.85
2017-06-30T01:22:59.346Z,14.82
2017-06-30T01:23:13.043Z,14.8
2017-06-30T01:23:26.520Z,14.79
2017-06-30T01:23:39.948Z,14.82
2017-06-30T01:23:53.386Z,14.87
2017-06-30T01:24:06.855Z,14.85
2017-06-30T01:24:20.330Z,14.82
2017-06-30T01:24:33.736Z,14.8
2017-06-30T01:24:47.226Z,14.83
2017-06-30T01:25:00.911Z,14.83
2017-06-30T01:25:14.373Z,14.89
2017-06-30T01:25:27.767Z,14.93
2017-06-30T01:25:41.198Z,14.85
2017-06-30T01:25:54.663Z,14.86
2017-06-30T01:26:08.152Z,14.95
2017-06-30T01:26:21.609Z,14.97
2017-06-30T01:26:35.093Z,15
2017-06-30T01:26:48.018Z,14.97
2017-06-30T01:27:01.455Z,14.86
2017-06-30T01:27:14.869Z,14.89
2017-06-30T01:27:28.283Z,14.94
2017-06-30T01:27:41.720Z,14.98
2017-06-30T01:27:55.231Z,14.89
2017-06-30T01:28:08.683Z,14.9
2017-06-30T01:28:22.111Z,15.04
2017-06-30T01:28:35.542Z,14.97
2017-06-30T01:28:48.912Z,15.02
2017-06-30T01:29:02.406Z,14.9
2017-06-30T01:29:15.333Z,14.98
2017-06-30T01:29:28.764Z,14.89
2017-06-30T01:29:42.199Z,14.94
2017-06-30T01:29:55.731Z,15.01
2017-06-30T01:30:08.651Z,14.94
2017-06-30T01:30:22.177Z,14.97
2017-06-30T01:30:35.590Z,14.98
2017-06-30T01:30:49.028Z,15.02
2017-06-30T01:31:01.955Z,15.02
2017-06-30T01:31:15.379Z,15.05
2017-06-30T01:31:28.811Z,15.05
2017-06-30T01:31:42.289Z,15.02
2017-06-30T01:31:55.732Z,15.01
2017-06-30T01:32:08.645Z,15.04
2017-06-30T01:32:22.062Z,14.94
2017-06-30T01:32:35.509Z,14.98
2017-06-30T01:32:48.502Z,14.95
2017-06-30T01:33:01.877Z,14.94
2017-06-30T01:33:15.358Z,14.98
2017-06-30T01:33:28.833Z,14.89
2017-06-30T01:33:41.758Z,14.97
2017-06-30T01:33:55.193Z,14.94
2017-06-30T01:34:08.168Z,14.9
2017-06-30T01:34:21.573Z,14.85
2017-06-30T01:34:35.014Z,14.93
2017-06-30T01:34:48.438Z,14.93
2017-06-30T01:35:01.853Z,14.87
2017-06-30T01:35:15.268Z,14.97
2017-06-30T01:35:28.737Z,14.87
2017-06-30T01:35:42.152Z,14.97
2017-06-30T01:35:56.517Z,14.9
2017-06-30T01:36:09.975Z,14.8
2017-06-30T01:36:23.520Z,14.85
2017-06-30T01:36:36.974Z,14.8
2017-06-30T01:36:50.415Z,14.82
2017-06-30T01:37:03.915Z,14.83
2017-06-30T01:37:17.410Z,14.82
2017-06-30T01:37:30.855Z,14.8
2017-06-30T01:37:43.733Z,14.83
2017-06-30T01:37:57.185Z,14.79
2017-06-30T01:38:10.636Z,14.8
2017-06-30T01:38:24.321Z,14.82
2017-06-30T01:38:37.244Z,14.77
2017-06-30T01:38:50.159Z,14.79
2017-06-30T01:39:03.626Z,14.71
2017-06-30T01:39:16.520Z,14.83
2017-06-30T01:39:29.938Z,14.74
2017-06-30T01:39:42.810Z,14.71
2017-06-30T01:39:56.267Z,14.7
2017-06-30T01:40:09.731Z,14.7
2017-06-30T01:40:23.178Z,14.7
2017-06-30T01:40:36.625Z,14.69
2017-06-30T01:40:50.061Z,14.74
2017-06-30T01:41:03.568Z,14.7
2017-06-30T01:41:17.056Z,14.75
2017-06-30T01:41:30.455Z,14.75
2017-06-30T01:41:43.954Z,14.69
2017-06-30T01:41:57.403Z,14.77
2017-06-30T01:42:10.399Z,14.69
2017-06-30T01:42:23.894Z,14.77
2017-06-30T01:42:37.397Z,14.79
2017-06-30T01:42:50.321Z,14.75
2017-06-30T01:43:03.807Z,14.75
2017-06-30T01:43:17.267Z,14.8
2017-06-30T01:43:30.715Z,14.64
2017-06-30T01:43:44.178Z,14.79
2017-06-30T01:43:57.103Z,14.82
2017-06-30T01:44:10.547Z,14.79
2017-06-30T01:44:23.538Z,14.79
2017-06-30T01:44:37.074Z,14.82
2017-06-30T01:44:49.993Z,14.79
2017-06-30T01:45:03.375Z,14.85
2017-06-30T01:45:16.823Z,14.83
2017-06-30T01:45:30.345Z,14.83
2017-06-30T01:45:43.851Z,14.79
2017-06-30T01:45:56.803Z,14.8
2017-06-30T01:46:10.308Z,14.82
2017-06-30T01:46:23.730Z,14.8
2017-06-30T01:46:37.152Z,14.87
2017-06-30T01:46:50.642Z,14.82
2017-06-30T01:47:04.080Z,14.86
2017-06-30T01:47:17.538Z,14.83
2017-06-30T01:47:30.921Z,14.82
2017-06-30T01:47:43.855Z,14.85
2017-06-30T01:47:57.278Z,14.83
2017-06-30T01:48:10.724Z,14.85
2017-06-30T01:48:24.145Z,14.77
2017-06-30T01:48:37.071Z,14.77
2017-06-30T01:48:50.551Z,14.82
2017-06-30T01:49:04.071Z,14.85
2017-06-30T01:49:17.503Z,14.75
2017-06-30T01:49:30.918Z,14.74
2017-06-30T01:49:44.366Z,14.77
2017-06-30T01:49:57.783Z,14.75
2017-06-30T01:50:11.177Z,14.8
2017-06-30T01:50:24.628Z,14.71
2017-06-30T01:50:38.141Z,14.8
2017-06-30T01:50:51.586Z,14.7
2017-06-30T01:51:05.040Z,14.7
2017-06-30T01:51:18.745Z,14.71
2017-06-30T01:51:31.182Z,14.75
2017-06-30T01:51:44.139Z,14.7
2017-06-30T01:51:57.631Z,14.71
2017-06-30T01:52:11.049Z,14.71
2017-06-30T01:52:24.491Z,14.69
2017-06-30T01:52:37.883Z,14.69
2017-06-30T01:52:51.318Z,14.66
2017-06-30T01:53:04.245Z,14.69
2017-06-30T01:53:17.698Z,14.7
2017-06-30T01:53:31.551Z,14.75
2017-06-30T01:53:44.982Z,14.71
2017-06-30T01:53:57.920Z,14.69
2017-06-30T01:54:11.335Z,14.74
2017-06-30T01:54:24.874Z,14.66
2017-06-30T01:54:38.314Z,14.66
2017-06-30T01:54:51.265Z,14.7
2017-06-30T01:55:04.174Z,14.67
2017-06-30T01:55:17.627Z,14.6
2017-06-30T01:55:31.112Z,14.57
2017-06-30T01:55:44.585Z,14.64
2017-06-30T01:55:58.095Z,14.57
2017-06-30T01:56:11.573Z,14.64
2017-06-30T01:56:25.043Z,14.6
2017-06-30T01:56:38.537Z,14.6
2017-06-30T01:56:51.976Z,14.56
2017-06-30T01:57:05.438Z,14.63
2017-06-30T01:57:18.854Z,14.53
2017-06-30T01:57:32.351Z,14.49
2017-06-30T01:57:45.812Z,14.51
2017-06-30T01:57:58.720Z,14.6
2017-06-30T01:58:12.213Z,14.59
2017-06-30T01:58:25.720Z,14.48
2017-06-30T01:58:39.187Z,14.53
2017-06-30T01:58:52.656Z,14.59
2017-06-30T01:59:06.134Z,14.6
2017-06-30T01:59:19.619Z,14.64
2017-06-30T01:59:33.017Z,14.57
2017-06-30T01:59:46.469Z,14.71
2017-06-30T01:59:59.935Z,14.61
2017-06-30T02:00:13.360Z,14.6
2017-06-30T02:00:26.839Z,14.63
2017-06-30T02:00:40.276Z,14.64
2017-06-30T02:00:53.720Z,14.63
2017-06-30T02:01:07.167Z,14.7
2017-06-30T02:01:20.588Z,14.67
2017-06-30T02:01:34.091Z,14.67
2017-06-30T02:01:47.509Z,14.64
2017-06-30T02:02:00.967Z,14.67
2017-06-30T02:02:14.429Z,14.71
2017-06-30T02:02:27.875Z,14.64
2017-06-30T02:02:41.356Z,14.63
2017-06-30T02:02:54.306Z,14.66
2017-06-30T02:03:07.274Z,14.64
2017-06-30T02:03:20.689Z,14.6
2017-06-30T02:03:34.374Z,14.63
2017-06-30T02:03:47.903Z,14.64
2017-06-30T02:04:01.325Z,14.63
2017-06-30T02:04:14.209Z,14.63
2017-06-30T02:04:27.094Z,14.59
2017-06-30T02:04:40.534Z,14.64
2017-06-30T02:04:53.965Z,14.63
2017-06-30T02:05:06.401Z,14.69
2017-06-30T02:05:18.818Z,14.67
2017-06-30T02:05:32.364Z,14.6
2017-06-30T02:05:45.842Z,14.71
2017-06-30T02:05:59.304Z,14.67
2017-06-30T02:06:12.777Z,14.6
2017-06-30T02:06:26.250Z,14.67
2017-06-30T02:06:39.736Z,14.57
2017-06-30T02:06:52.623Z,14.59
2017-06-30T02:07:05.579Z,14.64
2017-06-30T02:07:19.001Z,14.53
2017-06-30T02:07:32.466Z,14.59
2017-06-30T02:07:45.913Z,14.61
2017-06-30T02:07:59.354Z,14.6
2017-06-30T02:08:12.815Z,14.59
2017-06-30T02:08:26.474Z,14.51
2017-06-30T02:08:39.337Z,14.57
2017-06-30T02:08:52.815Z,14.6
2017-06-30T02:09:06.267Z,14.53
2017-06-30T02:09:19.214Z,14.6
2017-06-30T02:09:32.638Z,14.53
2017-06-30T02:09:46.041Z,14.59
2017-06-30T02:09:59.489Z,14.48
2017-06-30T02:10:12.358Z,14.6
2017-06-30T02:10:25.813Z,14.53
2017-06-30T02:10:39.232Z,14.48
2017-06-30T02:10:52.733Z,14.64
2017-06-30T02:11:06.240Z,14.61
2017-06-30T02:11:19.715Z,14.57
2017-06-30T02:11:33.219Z,14.49
2017-06-30T02:11:46.122Z,14.49
2017-06-30T02:11:59.567Z,14.57
2017-06-30T02:12:12.985Z,14.6
2017-06-30T02:12:26.401Z,14.64
2017-06-30T02:12:39.298Z,14.63
2017-06-30T02:12:52.799Z,14.63
2017-06-30T02:13:06.677Z,14.64
2017-06-30T02:13:20.040Z,14.67
2017-06-30T02:13:32.952Z,14.6
2017-06-30T02:13:46.413Z,14.59
2017-06-30T02:13:59.862Z,14.63
2017-06-30T02:14:12.323Z,14.66
2017-06-30T02:14:25.742Z,14.63
2017-06-30T02:14:39.187Z,14.61
2017-06-30T02:14:52.628Z,14.6
2017-06-30T02:15:06.031Z,14.59
2017-06-30T02:15:18.931Z,14.63
2017-06-30T02:15:32.324Z,14.6
2017-06-30T02:15:45.448Z,14.6
2017-06-30T02:15:58.842Z,14.63
2017-06-30T02:16:12.331Z,14.61
2017-06-30T02:16:25.717Z,14.66
2017-06-30T02:16:39.187Z,14.63
2017-06-30T02:16:52.613Z,14.64
2017-06-30T02:17:06.008Z,14.59
2017-06-30T02:17:19.463Z,14.59
2017-06-30T02:17:32.892Z,14.6
2017-06-30T02:17:46.299Z,14.56
2017-06-30T02:17:59.725Z,14.46
2017-06-30T02:18:12.110Z,14.61
2017-06-30T02:18:25.568Z,14.52
2017-06-30T02:18:39.033Z,14.56
2017-06-30T02:18:52.427Z,14.52
2017-06-30T02:19:05.431Z,14.53
2017-06-30T02:19:18.880Z,14.46
2017-06-30T02:19:32.366Z,14.46
2017-06-30T02:19:45.829Z,14.57
2017-06-30T02:19:59.328Z,14.48
2017-06-30T02:20:11.733Z,14.46
2017-06-30T02:20:24.679Z,14.51
2017-06-30T02:20:37.075Z,14.46
2017-06-30T02:20:50.540Z,14.48
2017-06-30T02:21:04.016Z,14.45
2017-06-30T02:21:17.497Z,14.45
2017-06-30T02:21:30.933Z,14.45
2017-06-30T02:21:44.394Z,14.44
2017-06-30T02:21:57.893Z,14.48
2017-06-30T02:22:11.394Z,14.46
2017-06-30T02:22:24.381Z,14.41
2017-06-30T02:22:37.908Z,14.46
2017-06-30T02:22:51.326Z,14.48
2017-06-30T02:23:04.205Z,14.48
2017-06-30T02:23:17.588Z,14.52
2017-06-30T02:23:31.060Z,14.45
2017-06-30T02:23:44.894Z,14.52
2017-06-30T02:23:58.322Z,14.51
2017-06-30T02:24:11.779Z,14.44
2017-06-30T02:24:25.191Z,14.41
2017-06-30T02:24:38.701Z,14.44
2017-06-30T02:24:51.645Z,14.42
2017-06-30T02:25:05.083Z,14.39
2017-06-30T02:25:17.978Z,14.44
2017-06-30T02:25:30.876Z,14.39
2017-06-30T02:25:44.316Z,14.39
2017-06-30T02:25:57.749Z,14.42
2017-06-30T02:26:11.194Z,14.39
2017-06-30T02:26:24.631Z,14.3
2017-06-30T02:26:37.488Z,14.38
2017-06-30T02:26:50.976Z,14.31
2017-06-30T02:27:04.462Z,14.33
2017-06-30T02:27:17.902Z,14.27
2017-06-30T02:27:31.343Z,14.39
2017-06-30T02:27:44.789Z,14.27
2017-06-30T02:27:58.335Z,14.28
2017-06-30T02:28:11.260Z,14.33
2017-06-30T02:28:24.190Z,14.31
2017-06-30T02:28:37.632Z,14.3
2017-06-30T02:28:50.573Z,14.24
2017-06-30T02:29:04.026Z,14.26
2017-06-30T02:29:16.956Z,14.28
2017-06-30T02:29:30.407Z,14.23
2017-06-30T02:29:43.821Z,14.21
2017-06-30T02:29:57.254Z,14.21
2017-06-30T02:30:10.687Z,14.27
2017-06-30T02:30:24.115Z,14.23
2017-06-30T02:30:37.629Z,14.23
2017-06-30T02:30:51.097Z,14.19
2017-06-30T02:31:04.561Z,14.2
2017-06-30T02:31:17.994Z,14.15
2017-06-30T02:31:31.479Z,14.13
2017-06-30T02:31:44.906Z,14.15
2017-06-30T02:31:58.615Z,14.16
2017-06-30T02:32:12.018Z,14.13
2017-06-30T02:32:25.420Z,14.19
2017-06-30T02:32:38.352Z,14.15
2017-06-30T02:32:51.299Z,14.11
2017-06-30T02:33:04.749Z,14.2
2017-06-30T02:33:18.183Z,14.13
2017-06-30T02:33:31.637Z,14.16
2017-06-30T02:33:45.352Z,14.13
2017-06-30T02:33:58.750Z,14.11
2017-06-30T02:34:12.198Z,14.2
2017-06-30T02:34:24.572Z,14.11
2017-06-30T02:34:38.049Z,14.09
2017-06-30T02:34:51.022Z,14.19
2017-06-30T02:35:04.570Z,14.12
2017-06-30T02:35:18.061Z,14.12
2017-06-30T02:35:31.510Z,14.13
2017-06-30T02:35:44.980Z,14.12
2017-06-30T02:35:58.409Z,14.13
2017-06-30T02:36:11.824Z,14.11
2017-06-30T02:36:25.266Z,14.2
2017-06-30T02:36:38.697Z,14.12
2017-06-30T02:36:52.159Z,14.13
2017-06-30T02:37:05.660Z,14.15
2017-06-30T02:37:19.076Z,14.13
2017-06-30T02:37:32.512Z,14.13
2017-06-30T02:37:46.012Z,14.19
2017-06-30T02:37:59.553Z,14.12
2017-06-30T02:38:12.461Z,14.12
2017-06-30T02:38:25.884Z,14.15
2017-06-30T02:38:39.355Z,14.15
2017-06-30T02:38:53.018Z,14.16
2017-06-30T02:39:06.440Z,14.2
2017-06-30T02:39:19.884Z,14.13
2017-06-30T02:39:33.347Z,14.11
2017-06-30T02:39:46.828Z,14.16
2017-06-30T02:40:00.334Z,14.15
2017-06-30T02:40:13.853Z,14.13
2017-06-30T02:40:27.340Z,14.12
2017-06-30T02:40:40.241Z,14.13
2017-06-30T02:40:53.741Z,14.15
2017-06-30T02:41:07.237Z,14.11
2017-06-30T02:41:20.682Z,14.13
2017-06-30T02:41:33.591Z,14.11
2017-06-30T02:41:46.523Z,14.12
2017-06-30T02:41:59.986Z,14.06
2017-06-30T02:42:13.456Z,14.06
2017-06-30T02:42:26.962Z,14.03
2017-06-30T02:42:40.445Z,14.02
2017-06-30T02:42:53.967Z,14.02
2017-06-30T02:43:07.425Z,13.99
2017-06-30T02:43:20.336Z,14.02
2017-06-30T02:43:33.715Z,14.02
2017-06-30T02:43:47.149Z,14.02
2017-06-30T02:44:00.621Z,13.97
2017-06-30T02:44:13.538Z,14.02
2017-06-30T02:44:27.007Z,13.97
2017-06-30T02:44:40.434Z,14.01
2017-06-30T02:44:53.341Z,14.02
2017-06-30T02:45:06.829Z,14.01
2017-06-30T02:45:20.239Z,14.02
2017-06-30T02:45:33.213Z,13.99
2017-06-30T02:45:46.704Z,14.02
2017-06-30T02:46:00.186Z,13.95
2017-06-30T02:46:13.643Z,13.94
2017-06-30T02:46:27.150Z,14.03
2017-06-30T02:46:40.622Z,13.93
2017-06-30T02:46:54.124Z,13.93
2017-06-30T02:47:07.614Z,14.02
2017-06-30T02:47:21.053Z,13.93
2017-06-30T02:47:34.544Z,13.95
2017-06-30T02:47:47.404Z,13.99
2017-06-30T02:48:00.852Z,14.03
2017-06-30T02:48:14.305Z,13.93
2017-06-30T02:48:27.749Z,13.93
2017-06-30T02:48:41.205Z,13.93
2017-06-30T02:48:54.212Z,13.93
2017-06-30T02:49:07.099Z,14.01
2017-06-30T02:49:20.491Z,13.95
2017-06-30T02:49:33.957Z,13.93
2017-06-30T02:49:47.401Z,14.01
2017-06-30T02:50:00.835Z,13.94
2017-06-30T02:50:14.328Z,14.02
2017-06-30T02:50:27.792Z,13.95
2017-06-30T02:50:41.294Z,14.01
2017-06-30T02:50:54.743Z,14.05
2017-06-30T02:51:08.206Z,14.03
2017-06-30T02:51:21.669Z,13.95
2017-06-30T02:51:35.090Z,14.11
2017-06-30T02:51:48.538Z,13.99
2017-06-30T02:52:01.467Z,14.03
2017-06-30T02:52:13.364Z,14.03
2017-06-30T02:52:26.820Z,14.01
2017-06-30T02:52:40.222Z,14.02
2017-06-30T02:52:53.621Z,14.03